createdAt,value
2022-11-16T00:00:37.529Z,0.00
2022-11-16T00:01:37.600Z,0.00
2022-11-16T00:02:37.596Z,0.00
2022-11-16T00:03:37.490Z,0.00
2022-11-16T00:04:37.476Z,0.00
2022-11-16T00:06:37.450Z,0.00
2022-11-16T00:07:37.550Z,0.00
2022-11-16T00:08:37.427Z,0.00
2022-11-16T00:09:37.413Z,0.00
2022-11-16T00:10:37.399Z,0.00
2022-11-16T00:11:37.387Z,0.00
2022-11-16T00:12:37.375Z,0.00
2022-11-16T00:13:37.361Z,0.00
2022-11-16T00:14:37.347Z,0.00
2022-11-16T00:15:37.340Z,0.00
2022-11-16T00:17:37.344Z,0.00
2022-11-16T00:18:37.295Z,0.00
2022-11-16T00:19:37.285Z,0.00
2022-11-16T00:20:37.287Z,0.00
2022-11-16T00:21:37.274Z,0.00
2022-11-16T00:22:37.249Z,0.00
2022-11-16T00:23:37.245Z,0.00
2022-11-16T00:24:37.225Z,0.00
2022-11-16T00:25:37.216Z,0.00
2022-11-16T00:26:37.211Z,0.00
2022-11-16T00:28:37.170Z,0.00
2022-11-16T00:29:37.155Z,0.00
2022-11-16T00:30:37.143Z,0.00
2022-11-16T00:31:37.129Z,0.00
2022-11-16T00:32:37.114Z,0.00
2022-11-16T00:33:37.127Z,0.00
2022-11-16T00:34:37.088Z,0.00
2022-11-16T00:35:37.079Z,0.00
2022-11-16T00:36:37.062Z,0.00
2022-11-16T00:37:37.053Z,0.00
2022-11-16T00:39:37.026Z,0.00
2022-11-16T00:40:37.016Z,0.00
2022-11-16T00:41:37.000Z,0.00
2022-11-16T00:42:36.986Z,0.00
2022-11-16T00:43:36.976Z,0.00
2022-11-16T00:44:36.961Z,0.00
2022-11-16T00:45:36.950Z,0.00
2022-11-16T00:46:36.937Z,0.00
2022-11-16T00:47:36.924Z,0.00
2022-11-16T00:48:36.999Z,0.00
2022-11-16T00:50:36.885Z,0.00
2022-11-16T00:51:36.872Z,0.00
2022-11-16T00:52:36.858Z,0.00
2022-11-16T00:53:36.847Z,0.00
2022-11-16T00:54:36.838Z,0.00
2022-11-16T00:55:36.821Z,0.00
2022-11-16T00:56:36.814Z,0.00
2022-11-16T00:57:36.795Z,0.00
2022-11-16T00:58:37.027Z,0.00
2022-11-16T00:59:36.769Z,0.00
2022-11-16T01:01:36.796Z,0.00
2022-11-16T01:02:36.733Z,0.00
2022-11-16T01:03:36.718Z,0.00
2022-11-16T01:04:36.703Z,0.00
2022-11-16T01:05:36.715Z,0.00
2022-11-16T01:06:36.678Z,0.00
2022-11-16T01:07:36.733Z,0.00
2022-11-16T01:08:36.949Z,0.00
2022-11-16T01:09:36.640Z,0.00
2022-11-16T01:10:36.626Z,0.00
2022-11-16T01:12:36.602Z,0.00
2022-11-16T01:13:36.591Z,0.00
2022-11-16T01:14:36.575Z,0.00
2022-11-16T01:15:36.563Z,0.00
2022-11-16T01:16:36.551Z,0.00
2022-11-16T01:17:36.537Z,0.00
2022-11-16T01:18:36.523Z,0.00
2022-11-16T01:19:36.511Z,0.00
2022-11-16T01:20:36.497Z,0.00
2022-11-16T01:21:36.529Z,0.00
2022-11-16T01:23:36.461Z,0.00
2022-11-16T01:24:36.446Z,0.00
2022-11-16T01:25:36.436Z,0.00
2022-11-16T01:26:36.420Z,0.00
2022-11-16T01:27:36.407Z,0.00
2022-11-16T01:28:36.871Z,0.00
2022-11-16T01:29:36.383Z,0.00
2022-11-16T01:30:36.367Z,0.00
2022-11-16T01:31:36.360Z,0.00
2022-11-16T01:32:36.344Z,0.00
2022-11-16T01:34:36.317Z,0.00
2022-11-16T01:35:36.303Z,0.00
2022-11-16T01:36:36.291Z,0.00
2022-11-16T01:37:36.306Z,0.00
2022-11-16T01:38:36.678Z,0.00
2022-11-16T01:39:36.252Z,0.00
2022-11-16T01:40:36.237Z,0.00
2022-11-16T01:41:36.228Z,0.00
2022-11-16T01:42:36.212Z,0.00
2022-11-16T01:43:36.203Z,0.00
2022-11-16T01:45:36.175Z,0.00
2022-11-16T01:46:36.161Z,0.00
2022-11-16T01:47:36.155Z,0.00
2022-11-16T01:48:36.647Z,0.00
2022-11-16T01:49:36.125Z,0.00
2022-11-16T01:50:36.110Z,0.00
2022-11-16T01:51:36.099Z,0.00
2022-11-16T01:52:36.084Z,0.00
2022-11-16T01:53:36.099Z,0.00
2022-11-16T01:54:36.059Z,0.00
2022-11-16T01:56:36.037Z,0.00
2022-11-16T01:57:36.023Z,0.00
2022-11-16T01:58:36.341Z,0.00
2022-11-16T01:59:35.999Z,0.00
2022-11-16T02:00:35.983Z,0.00
2022-11-16T02:01:36.041Z,0.00
2022-11-16T02:02:35.961Z,0.00
2022-11-16T02:03:35.945Z,0.00
2022-11-16T02:04:35.929Z,0.00
2022-11-16T02:05:35.918Z,0.00
2022-11-16T02:07:35.944Z,0.00
2022-11-16T02:08:36.181Z,0.00
2022-11-16T02:09:35.889Z,0.00
2022-11-16T02:10:35.850Z,0.00
2022-11-16T02:11:35.840Z,0.00
2022-11-16T02:12:35.828Z,0.00
2022-11-16T02:13:35.817Z,0.00
2022-11-16T02:14:35.798Z,0.00
2022-11-16T02:15:35.789Z,0.00
2022-11-16T02:16:35.773Z,0.00
2022-11-16T02:18:36.221Z,0.00
2022-11-16T02:19:35.741Z,0.00
2022-11-16T02:20:35.720Z,0.00
2022-11-16T02:21:35.710Z,0.00
2022-11-16T02:22:35.697Z,0.00
2022-11-16T02:23:35.689Z,0.00
2022-11-16T02:24:35.669Z,0.00
2022-11-16T02:25:35.684Z,0.00
2022-11-16T02:26:35.645Z,0.00
2022-11-16T02:27:35.634Z,0.00
2022-11-16T02:29:35.607Z,0.00
2022-11-16T02:30:35.594Z,0.00
2022-11-16T02:31:35.580Z,0.00
2022-11-16T02:32:35.567Z,0.00
2022-11-16T02:33:35.556Z,0.00
2022-11-16T02:34:35.544Z,0.00
2022-11-16T02:35:35.533Z,0.00
2022-11-16T02:36:35.518Z,0.00
2022-11-16T02:37:35.505Z,0.00
2022-11-16T02:38:35.853Z,0.00
2022-11-16T02:40:35.463Z,0.00
2022-11-16T02:41:35.474Z,0.00
2022-11-16T02:42:35.436Z,0.00
2022-11-16T02:43:35.425Z,0.00
2022-11-16T02:44:35.412Z,0.00
2022-11-16T02:45:35.399Z,0.00
2022-11-16T02:46:35.385Z,0.00
2022-11-16T02:47:35.374Z,0.00
2022-11-16T02:48:35.705Z,0.00
2022-11-16T02:49:35.347Z,0.00
2022-11-16T02:51:35.324Z,0.00
2022-11-16T02:52:35.308Z,0.00
2022-11-16T02:53:35.297Z,0.00
2022-11-16T02:54:35.282Z,0.00
2022-11-16T02:55:35.270Z,0.00
2022-11-16T02:56:35.255Z,0.00
2022-11-16T02:57:35.270Z,0.00
2022-11-16T02:58:35.671Z,0.00
2022-11-16T02:59:35.218Z,0.00
2022-11-16T03:00:35.229Z,0.00
2022-11-16T03:02:35.178Z,0.00
2022-11-16T03:03:35.167Z,0.00
2022-11-16T03:04:35.153Z,0.00
2022-11-16T03:05:35.139Z,0.00
2022-11-16T03:06:35.126Z,0.00
2022-11-16T03:07:35.182Z,0.00
2022-11-16T03:08:35.497Z,0.00
2022-11-16T03:09:35.091Z,0.00
2022-11-16T03:10:35.075Z,0.00
2022-11-16T03:11:35.062Z,0.00
2022-11-16T03:13:35.062Z,0.00
2022-11-16T03:14:35.026Z,0.00
2022-11-16T03:15:35.009Z,0.00
2022-11-16T03:16:35.006Z,0.00
2022-11-16T03:17:34.984Z,0.00
2022-11-16T03:18:35.317Z,0.00
2022-11-16T03:19:34.957Z,0.00
2022-11-16T03:20:34.945Z,0.00
2022-11-16T03:21:34.931Z,0.00
2022-11-16T03:22:34.922Z,0.00
2022-11-16T03:24:34.895Z,0.00
2022-11-16T03:25:34.880Z,0.00
2022-11-16T03:26:34.869Z,0.00
2022-11-16T03:27:34.856Z,0.00
2022-11-16T03:28:35.269Z,0.00
2022-11-16T03:29:34.853Z,0.00
2022-11-16T03:30:34.817Z,0.00
2022-11-16T03:31:34.808Z,0.00
2022-11-16T03:32:34.793Z,0.00
2022-11-16T03:33:34.779Z,0.00
2022-11-16T03:35:34.750Z,0.00
2022-11-16T03:36:34.744Z,0.00
2022-11-16T03:37:34.725Z,0.00
2022-11-16T03:38:35.131Z,0.00
2022-11-16T03:39:34.699Z,0.00
2022-11-16T03:40:34.688Z,0.00
2022-11-16T03:41:34.672Z,0.00
2022-11-16T03:42:34.661Z,0.00
2022-11-16T03:43:34.647Z,0.00
2022-11-16T03:44:34.636Z,0.00
2022-11-16T03:46:34.608Z,0.00
2022-11-16T03:47:34.595Z,0.00
2022-11-16T03:48:34.902Z,0.00
2022-11-16T03:49:34.570Z,0.00
2022-11-16T03:50:34.557Z,0.00
2022-11-16T03:51:34.546Z,0.00
2022-11-16T03:52:34.532Z,0.00
2022-11-16T03:53:34.527Z,0.00
2022-11-16T03:54:34.506Z,0.00
2022-11-16T03:55:34.492Z,0.00
2022-11-16T03:57:34.465Z,0.00
2022-11-16T03:58:34.760Z,0.00
2022-11-16T03:59:34.439Z,0.00
2022-11-16T04:00:34.482Z,0.00
2022-11-16T04:01:34.438Z,0.00
2022-11-16T04:02:34.403Z,0.00
2022-11-16T04:03:34.390Z,0.00
2022-11-16T04:04:34.378Z,0.00
2022-11-16T04:05:34.365Z,0.00
2022-11-16T04:06:34.353Z,0.00
2022-11-16T04:08:34.559Z,0.00
2022-11-16T04:09:34.311Z,0.00
2022-11-16T04:10:34.299Z,0.00
2022-11-16T04:11:34.285Z,0.00
2022-11-16T04:12:34.275Z,0.00
2022-11-16T04:13:34.259Z,0.00
2022-11-16T04:14:34.249Z,0.00
2022-11-16T04:15:34.235Z,0.00
2022-11-16T04:16:34.223Z,0.00
2022-11-16T04:17:34.235Z,0.00
2022-11-16T04:19:34.184Z,0.00
2022-11-16T04:20:34.173Z,0.00
2022-11-16T04:21:34.158Z,0.00
2022-11-16T04:22:34.147Z,0.00
2022-11-16T04:23:34.131Z,0.00
2022-11-16T04:24:34.120Z,0.00
2022-11-16T04:25:34.105Z,0.00
2022-11-16T04:26:34.096Z,0.00
2022-11-16T04:27:34.083Z,0.00
2022-11-16T04:28:34.386Z,0.00
2022-11-16T04:30:34.044Z,0.00
2022-11-16T04:31:34.029Z,0.00
2022-11-16T04:32:34.018Z,0.00
2022-11-16T04:33:34.027Z,0.00
2022-11-16T04:34:33.993Z,0.00
2022-11-16T04:35:33.977Z,0.00
2022-11-16T04:36:33.965Z,0.00
2022-11-16T04:37:33.951Z,0.00
2022-11-16T04:38:34.452Z,0.00
2022-11-16T04:39:33.925Z,0.00
2022-11-16T04:41:33.900Z,0.00
2022-11-16T04:42:33.888Z,0.00
2022-11-16T04:43:33.874Z,0.00
2022-11-16T04:44:33.862Z,0.00
2022-11-16T04:45:33.849Z,0.00
2022-11-16T04:46:33.839Z,0.00
2022-11-16T04:47:33.824Z,0.00
2022-11-16T04:48:34.171Z,0.00
2022-11-16T04:49:33.821Z,0.00
2022-11-16T04:50:33.797Z,0.00
2022-11-16T04:52:33.765Z,0.00
2022-11-16T04:53:33.751Z,0.00
2022-11-16T04:54:33.754Z,0.00
2022-11-16T04:55:33.719Z,0.00
2022-11-16T04:56:33.708Z,0.00
2022-11-16T04:57:33.696Z,0.00
2022-11-16T04:58:33.989Z,0.00
2022-11-16T04:59:33.668Z,0.00
2022-11-16T05:00:33.658Z,0.00
2022-11-16T05:01:33.698Z,0.00
2022-11-16T05:03:33.615Z,0.00
2022-11-16T05:04:33.604Z,0.00
2022-11-16T05:05:33.620Z,0.00
2022-11-16T05:06:33.578Z,0.00
2022-11-16T05:07:33.624Z,0.00
2022-11-16T05:08:33.772Z,0.00
2022-11-16T05:09:33.539Z,0.00
2022-11-16T05:10:33.528Z,0.00
2022-11-16T05:11:33.514Z,0.00
2022-11-16T05:12:33.502Z,0.00
2022-11-16T05:14:33.474Z,0.00
2022-11-16T05:15:33.466Z,0.00
2022-11-16T05:16:33.449Z,0.00
2022-11-16T05:17:33.441Z,0.00
2022-11-16T05:18:33.780Z,0.00
2022-11-16T05:19:33.410Z,0.00
2022-11-16T05:20:33.407Z,0.00
2022-11-16T05:21:33.407Z,0.00
2022-11-16T05:22:33.371Z,0.00
2022-11-16T05:23:33.357Z,0.00
2022-11-16T05:25:36.814Z,0.00
2022-11-16T05:26:33.321Z,0.00
2022-11-16T05:27:33.307Z,0.00
2022-11-16T05:28:33.690Z,0.00
2022-11-16T05:29:33.279Z,0.00
2022-11-16T05:30:33.278Z,0.00
2022-11-16T05:31:39.142Z,0.00
2022-11-16T05:32:33.243Z,0.00
2022-11-16T05:33:33.228Z,0.00
2022-11-16T05:34:33.217Z,0.00
2022-11-16T05:36:33.194Z,0.00
2022-11-16T05:37:33.199Z,0.00
2022-11-16T05:38:33.613Z,0.00
2022-11-16T05:39:33.150Z,0.00
2022-11-16T05:40:33.149Z,0.00
2022-11-16T05:41:33.126Z,0.00
2022-11-16T05:42:33.120Z,0.00
2022-11-16T05:43:33.098Z,0.00
2022-11-16T05:44:33.088Z,0.00
2022-11-16T05:45:33.072Z,0.00
2022-11-16T05:47:33.048Z,0.00
2022-11-16T05:48:33.503Z,0.00
2022-11-16T05:49:33.021Z,0.00
2022-11-16T05:50:33.011Z,0.00
2022-11-16T05:51:32.996Z,0.00
2022-11-16T05:52:32.984Z,0.00
2022-11-16T05:53:32.994Z,0.00
2022-11-16T05:54:32.958Z,0.00
2022-11-16T05:55:32.945Z,0.00
2022-11-16T05:56:32.983Z,0.00
2022-11-16T05:58:33.435Z,0.00
2022-11-16T05:59:32.891Z,0.00
2022-11-16T06:00:32.880Z,0.00
2022-11-16T06:01:32.869Z,0.00
2022-11-16T06:02:32.857Z,0.00
2022-11-16T06:03:32.945Z,0.00
2022-11-16T06:04:32.983Z,0.00
2022-11-16T06:05:37.533Z,0.00
2022-11-16T06:06:32.803Z,0.00
2022-11-16T06:07:32.883Z,0.00
2022-11-16T06:09:32.764Z,4.00
2022-11-16T06:10:32.753Z,4.00
2022-11-16T06:11:35.806Z,0.00
2022-11-16T06:12:32.727Z,4.00
2022-11-16T06:13:32.711Z,4.00
2022-11-16T06:14:32.700Z,4.00
2022-11-16T06:15:32.688Z,8.00
2022-11-16T06:16:33.012Z,8.00
2022-11-16T06:17:32.660Z,8.00
2022-11-16T06:18:33.020Z,12.00
2022-11-16T06:20:32.622Z,16.00
2022-11-16T06:21:32.608Z,20.00
2022-11-16T06:22:32.599Z,28.00
2022-11-16T06:23:32.583Z,28.00
2022-11-16T06:24:32.572Z,36.00
2022-11-16T06:25:32.556Z,44.00
2022-11-16T06:26:32.545Z,48.00
2022-11-16T06:27:32.530Z,60.00
2022-11-16T06:28:32.997Z,68.00
2022-11-16T06:29:32.505Z,80.00
2022-11-16T06:31:32.480Z,112.00
2022-11-16T06:32:32.585Z,128.00
2022-11-16T06:33:33.922Z,144.00
2022-11-16T06:34:32.442Z,160.00
2022-11-16T06:35:32.428Z,176.00
2022-11-16T06:36:32.415Z,196.00
2022-11-16T06:37:32.402Z,220.00
2022-11-16T06:38:32.989Z,240.00
2022-11-16T06:39:32.378Z,264.00
2022-11-16T06:40:32.364Z,292.00
2022-11-16T06:42:32.338Z,348.00
2022-11-16T06:43:32.327Z,376.00
2022-11-16T06:44:32.311Z,412.00
2022-11-16T06:45:32.296Z,456.00
2022-11-16T06:46:32.289Z,492.00
2022-11-16T06:47:32.271Z,540.00
2022-11-16T06:48:32.495Z,588.00
2022-11-16T06:49:32.243Z,632.00
2022-11-16T06:50:32.232Z,680.00
2022-11-16T06:51:32.216Z,728.00
2022-11-16T06:53:32.195Z,820.00
2022-11-16T06:54:32.178Z,872.00
2022-11-16T06:55:32.164Z,920.00
2022-11-16T06:56:32.156Z,976.00
2022-11-16T06:57:32.140Z,1028.00
2022-11-16T06:58:32.777Z,1084.00
2022-11-16T06:59:32.111Z,1140.00
2022-11-16T07:00:32.103Z,1200.00
2022-11-16T07:01:32.176Z,1260.00
2022-11-16T07:02:32.070Z,1328.00
2022-11-16T07:04:32.167Z,1456.00
2022-11-16T07:05:32.030Z,1528.00
2022-11-16T07:06:32.018Z,1596.00
2022-11-16T07:07:32.091Z,1664.00
2022-11-16T07:08:32.358Z,1736.00
2022-11-16T07:09:31.981Z,1812.00
2022-11-16T07:10:31.965Z,1888.00
2022-11-16T07:11:31.951Z,1952.00
2022-11-16T07:12:31.938Z,2016.00
2022-11-16T07:13:31.923Z,2088.00
2022-11-16T07:15:31.895Z,2312.00
2022-11-16T07:16:31.883Z,2488.00
2022-11-16T07:17:31.869Z,2588.00
2022-11-16T07:18:32.256Z,2704.00
2022-11-16T07:19:31.844Z,2820.00
2022-11-16T07:20:31.950Z,2852.00
2022-11-16T07:21:31.818Z,2948.00
2022-11-16T07:22:31.803Z,3164.00
2022-11-16T07:23:31.789Z,3336.00
2022-11-16T07:24:31.778Z,3304.00
2022-11-16T07:26:31.753Z,3308.00
2022-11-16T07:27:31.739Z,3460.00
2022-11-16T07:28:32.023Z,3664.00
2022-11-16T07:29:31.711Z,3968.00
2022-11-16T07:30:31.696Z,4316.00
2022-11-16T07:31:31.685Z,4580.00
2022-11-16T07:32:31.672Z,5040.00
2022-11-16T07:33:31.659Z,5108.00
2022-11-16T07:34:31.642Z,5516.00
2022-11-16T07:35:31.632Z,5580.00
2022-11-16T07:37:31.606Z,17280.00
2022-11-16T07:38:32.043Z,29376.00
2022-11-16T07:39:31.580Z,15328.00
2022-11-16T07:40:31.567Z,23904.00
2022-11-16T07:41:31.556Z,21696.00
2022-11-16T07:42:31.540Z,8036.00
2022-11-16T07:43:31.529Z,21824.00
2022-11-16T07:44:31.514Z,17472.00
2022-11-16T07:45:31.502Z,11856.00
2022-11-16T07:46:46.506Z,18176.00
2022-11-16T07:48:31.707Z,30912.00
2022-11-16T07:49:31.451Z,29472.00
2022-11-16T07:50:31.436Z,33504.00
2022-11-16T07:51:31.426Z,37312.00
2022-11-16T07:52:31.660Z,7816.00
2022-11-16T07:53:31.398Z,7528.00
2022-11-16T07:54:31.385Z,5576.00
2022-11-16T07:55:31.372Z,5956.00
2022-11-16T07:56:31.359Z,5592.00
2022-11-16T07:57:31.346Z,5960.00
2022-11-16T07:59:31.324Z,17728.00
2022-11-16T08:00:31.305Z,13316.00
2022-11-16T08:01:31.332Z,41632.00
2022-11-16T08:02:31.280Z,27392.00
2022-11-16T08:03:31.269Z,10704.00
2022-11-16T08:04:31.255Z,8956.00
2022-11-16T08:05:31.244Z,37792.00
2022-11-16T08:06:31.227Z,33664.00
2022-11-16T08:07:31.265Z,17120.00
2022-11-16T08:08:31.571Z,17280.00
2022-11-16T08:10:31.252Z,7800.00
2022-11-16T08:11:31.162Z,14476.00
2022-11-16T08:12:31.146Z,31264.00
2022-11-16T08:13:31.138Z,42560.00
2022-11-16T08:14:31.122Z,37920.00
2022-11-16T08:15:31.120Z,19456.00
2022-11-16T08:16:31.095Z,30304.00
2022-11-16T08:17:31.085Z,24192.00
2022-11-16T08:18:31.379Z,23648.00
2022-11-16T08:19:31.058Z,26400.00
2022-11-16T08:21:31.036Z,16192.00
2022-11-16T08:22:31.016Z,14968.00
2022-11-16T08:23:31.005Z,12508.00
2022-11-16T08:24:31.015Z,6296.00
2022-11-16T08:25:30.979Z,5620.00
2022-11-16T08:26:30.966Z,5372.00
2022-11-16T08:27:30.953Z,5368.00
2022-11-16T08:28:31.228Z,5616.00
2022-11-16T08:29:30.926Z,8880.00
2022-11-16T08:30:30.911Z,11508.00
2022-11-16T08:32:30.888Z,13044.00
2022-11-16T08:33:30.873Z,48960.00
2022-11-16T08:34:30.861Z,51296.00
2022-11-16T08:35:30.849Z,53728.00
2022-11-16T08:36:30.833Z,28928.00
2022-11-16T08:37:30.821Z,28128.00
2022-11-16T08:38:31.037Z,23712.00
2022-11-16T08:39:30.796Z,22304.00
2022-11-16T08:40:30.899Z,44480.00
2022-11-16T08:41:30.772Z,30176.00
2022-11-16T08:43:30.746Z,18592.00
2022-11-16T08:44:30.729Z,24864.00
2022-11-16T08:45:30.717Z,30624.00
2022-11-16T08:46:30.704Z,49376.00
2022-11-16T08:47:30.692Z,57312.00
2022-11-16T08:48:30.980Z,57248.00
2022-11-16T08:49:30.665Z,43776.00
2022-11-16T08:50:33.457Z,53600.00
2022-11-16T08:51:30.640Z,51808.00
2022-11-16T08:52:30.625Z,41408.00
2022-11-16T08:54:30.599Z,70880.00
2022-11-16T08:55:30.589Z,71840.00
2022-11-16T08:56:30.695Z,75808.00
2022-11-16T08:57:30.563Z,69632.00
2022-11-16T08:58:30.957Z,84352.00
2022-11-16T08:59:30.553Z,84160.00
2022-11-16T09:00:30.524Z,83904.00
2022-11-16T09:01:30.623Z,83072.00
2022-11-16T09:02:30.498Z,85216.00
2022-11-16T09:03:30.487Z,86208.00
2022-11-16T09:05:30.465Z,81216.00
2022-11-16T09:06:30.449Z,81888.00
2022-11-16T09:07:30.478Z,83872.00
2022-11-16T09:08:30.603Z,69472.00
2022-11-16T09:09:30.417Z,49120.00
2022-11-16T09:10:30.408Z,61056.00
2022-11-16T09:11:30.389Z,73088.00
2022-11-16T09:12:30.398Z,77472.00
2022-11-16T09:13:30.364Z,77024.00
2022-11-16T09:14:30.350Z,75168.00
2022-11-16T09:16:30.323Z,86080.00
2022-11-16T09:17:30.320Z,88768.00
2022-11-16T09:18:30.476Z,86624.00
2022-11-16T09:19:30.292Z,85600.00
2022-11-16T09:20:30.276Z,81664.00
2022-11-16T09:21:30.270Z,78496.00
2022-11-16T09:22:30.253Z,80480.00
2022-11-16T09:23:30.239Z,80736.00
2022-11-16T09:24:30.224Z,81504.00
2022-11-16T09:25:30.216Z,61312.00
2022-11-16T09:27:30.190Z,75840.00
2022-11-16T09:28:30.393Z,73056.00
2022-11-16T09:29:30.164Z,68992.00
2022-11-16T09:30:30.151Z,84128.00
2022-11-16T09:31:30.161Z,83456.00
2022-11-16T09:32:30.126Z,85696.00
2022-11-16T09:33:30.116Z,86176.00
2022-11-16T09:34:30.102Z,82656.00
2022-11-16T09:35:30.091Z,81440.00
2022-11-16T09:36:30.080Z,84704.00
2022-11-16T09:38:40.679Z,82848.00
2022-11-16T09:39:32.436Z,84224.00
2022-11-16T09:40:30.031Z,40448.00
2022-11-16T09:41:30.017Z,66528.00
2022-11-16T09:42:30.007Z,73152.00
2022-11-16T09:43:29.995Z,81248.00
2022-11-16T09:44:30.096Z,66784.00
2022-11-16T09:45:29.969Z,45024.00
2022-11-16T09:46:29.954Z,34432.00
2022-11-16T09:47:30.027Z,21824.00
2022-11-16T09:49:29.921Z,22080.00
2022-11-16T09:50:29.909Z,13676.00
2022-11-16T09:51:29.895Z,20928.00
2022-11-16T09:52:29.880Z,24064.00
2022-11-16T09:53:29.867Z,13968.00
2022-11-16T09:54:29.853Z,14524.00
2022-11-16T09:55:29.844Z,20576.00
2022-11-16T09:56:29.829Z,15472.00
2022-11-16T09:57:29.934Z,12396.00
2022-11-16T09:58:31.497Z,22464.00
2022-11-16T10:00:29.966Z,74720.00
2022-11-16T10:01:29.765Z,77248.00
2022-11-16T10:02:29.751Z,82208.00
2022-11-16T10:03:29.740Z,92576.00
2022-11-16T10:04:29.727Z,85088.00
2022-11-16T10:05:29.715Z,94624.00
2022-11-16T10:06:29.701Z,92768.00
2022-11-16T10:07:29.758Z,87648.00
2022-11-16T10:08:29.678Z,89248.00
2022-11-16T10:09:29.667Z,28480.00
2022-11-16T10:11:29.649Z,79616.00
2022-11-16T10:12:29.628Z,63616.00
2022-11-16T10:13:29.616Z,38656.00
2022-11-16T10:14:29.602Z,78176.00
2022-11-16T10:15:29.591Z,25216.00
2022-11-16T10:16:29.736Z,58496.00
2022-11-16T10:17:29.566Z,24928.00
2022-11-16T10:18:29.552Z,22240.00
2022-11-16T10:19:29.541Z,19008.00
2022-11-16T10:20:31.074Z,18752.00
2022-11-16T10:22:29.500Z,19936.00
2022-11-16T10:23:29.489Z,27296.00
2022-11-16T10:24:29.476Z,23744.00
2022-11-16T10:25:29.464Z,20928.00
2022-11-16T10:26:29.448Z,50208.00
2022-11-16T10:27:29.437Z,41376.00
2022-11-16T10:28:29.428Z,87424.00
2022-11-16T10:29:29.413Z,41344.00
2022-11-16T10:30:29.400Z,96416.00
2022-11-16T10:31:29.389Z,89536.00
2022-11-16T10:33:29.361Z,91968.00
2022-11-16T10:34:29.349Z,95456.00
2022-11-16T10:35:29.338Z,91712.00
2022-11-16T10:36:29.324Z,91328.00
2022-11-16T10:37:29.320Z,80192.00
2022-11-16T10:38:29.301Z,85056.00
2022-11-16T10:39:29.289Z,64800.00
2022-11-16T10:40:29.278Z,86592.00
2022-11-16T10:41:29.265Z,67872.00
2022-11-16T10:42:29.259Z,78432.00
2022-11-16T10:44:29.229Z,59168.00
2022-11-16T10:45:29.217Z,84384.00
2022-11-16T10:46:29.203Z,64640.00
2022-11-16T10:47:33.559Z,67776.00
2022-11-16T10:48:29.252Z,73952.00
2022-11-16T10:49:29.171Z,92192.00
2022-11-16T10:50:29.156Z,86752.00
2022-11-16T10:51:29.151Z,70656.00
2022-11-16T10:52:29.136Z,88000.00
2022-11-16T10:53:29.125Z,67552.00
2022-11-16T10:55:29.097Z,73024.00
2022-11-16T10:56:29.096Z,94368.00
2022-11-16T10:57:29.075Z,92160.00
2022-11-16T10:58:29.062Z,56864.00
2022-11-16T10:59:29.049Z,21536.00
2022-11-16T11:00:29.117Z,93952.00
2022-11-16T11:01:29.026Z,85504.00
2022-11-16T11:02:29.015Z,24256.00
2022-11-16T11:03:29.002Z,29920.00
2022-11-16T11:04:29.126Z,41984.00
2022-11-16T11:06:28.964Z,58272.00
2022-11-16T11:07:29.064Z,11652.00
2022-11-16T11:08:28.942Z,10336.00
2022-11-16T11:09:28.932Z,9144.00
2022-11-16T11:10:28.915Z,8488.00
2022-11-16T11:11:28.906Z,8496.00
2022-11-16T11:12:28.891Z,8892.00
2022-11-16T11:13:28.898Z,8728.00
2022-11-16T11:14:28.867Z,8988.00
2022-11-16T11:15:28.855Z,9600.00
2022-11-16T11:17:28.844Z,12608.00
2022-11-16T11:18:28.813Z,14732.00
2022-11-16T11:19:28.805Z,18432.00
2022-11-16T11:20:28.811Z,66016.00
2022-11-16T11:21:28.777Z,25760.00
2022-11-16T11:22:28.766Z,59072.00
2022-11-16T11:23:28.752Z,94112.00
2022-11-16T11:24:43.950Z,28064.00
2022-11-16T11:25:30.727Z,45280.00
2022-11-16T11:26:34.722Z,72672.00
2022-11-16T11:29:28.676Z,13580.00
2022-11-16T11:31:28.655Z,16960.00
2022-11-16T11:32:28.639Z,21632.00
2022-11-16T11:33:28.624Z,67456.00
2022-11-16T11:34:28.612Z,59936.00
2022-11-16T11:35:28.605Z,62304.00
2022-11-16T11:36:28.604Z,57024.00
2022-11-16T11:37:28.575Z,49280.00
2022-11-16T11:39:28.710Z,69024.00
2022-11-16T11:40:28.536Z,56096.00
2022-11-16T11:41:28.529Z,53376.00
2022-11-16T11:42:28.510Z,64704.00
2022-11-16T11:43:28.496Z,64160.00
2022-11-16T11:44:28.486Z,55808.00
2022-11-16T11:45:28.475Z,49568.00
2022-11-16T11:46:56.156Z,49472.00
2022-11-16T11:47:56.143Z,45312.00
2022-11-16T11:49:33.403Z,12716.00
2022-11-16T11:50:28.413Z,13388.00
2022-11-16T11:51:28.398Z,31584.00
2022-11-16T11:52:28.502Z,53952.00
2022-11-16T11:53:28.370Z,54336.00
2022-11-16T11:54:28.358Z,42336.00
2022-11-16T11:55:28.343Z,66944.00
2022-11-16T11:56:28.333Z,30400.00
2022-11-16T11:57:28.319Z,60064.00
2022-11-16T11:58:28.307Z,66976.00
2022-11-16T12:00:28.284Z,20064.00
2022-11-16T12:01:28.269Z,84544.00
2022-11-16T12:02:28.258Z,81856.00
2022-11-16T12:03:28.244Z,82144.00
2022-11-16T12:04:28.236Z,81984.00
2022-11-16T12:05:28.224Z,73344.00
2022-11-16T12:06:28.209Z,85920.00
2022-11-16T12:07:28.294Z,20928.00
2022-11-16T12:08:28.304Z,80608.00
2022-11-16T12:09:28.182Z,80960.00
2022-11-16T12:11:28.146Z,55680.00
2022-11-16T12:12:28.138Z,74048.00
2022-11-16T12:13:28.123Z,20512.00
2022-11-16T12:14:28.110Z,16480.00
2022-11-16T12:15:28.097Z,13792.00
2022-11-16T12:16:28.087Z,11980.00
2022-11-16T12:17:28.072Z,10732.00
2022-11-16T12:18:28.062Z,10956.00
2022-11-16T12:19:28.047Z,21760.00
2022-11-16T12:20:28.035Z,27040.00
2022-11-16T12:22:28.009Z,12284.00
2022-11-16T12:23:27.996Z,12028.00
2022-11-16T12:24:28.101Z,12760.00
2022-11-16T12:25:27.969Z,14208.00
2022-11-16T12:26:27.959Z,29216.00
2022-11-16T12:27:27.947Z,41376.00
2022-11-16T12:28:27.934Z,15376.00
2022-11-16T12:29:27.919Z,54912.00
2022-11-16T12:30:27.909Z,56160.00
2022-11-16T12:31:27.893Z,27616.00
2022-11-16T12:33:27.868Z,17568.00
2022-11-16T12:34:27.856Z,16864.00
2022-11-16T12:35:27.843Z,12416.00
2022-11-16T12:36:27.832Z,61920.00
2022-11-16T12:37:27.822Z,13008.00
2022-11-16T12:38:27.810Z,30336.00
2022-11-16T12:39:27.792Z,10436.00
2022-11-16T12:40:27.897Z,9676.00
2022-11-16T12:41:27.766Z,8632.00
2022-11-16T12:42:27.754Z,7360.00
2022-11-16T12:44:27.729Z,6828.00
2022-11-16T12:45:32.160Z,6380.00
2022-11-16T12:46:27.703Z,6392.00
2022-11-16T12:47:27.703Z,6604.00
2022-11-16T12:48:27.676Z,6808.00
2022-11-16T12:49:27.661Z,7052.00
2022-11-16T12:50:27.652Z,7712.00
2022-11-16T12:51:31.729Z,16032.00
2022-11-16T12:52:27.623Z,30400.00
2022-11-16T12:53:27.610Z,10784.00
2022-11-16T12:55:28.355Z,9748.00
2022-11-16T12:56:27.700Z,8748.00
2022-11-16T12:57:27.557Z,7992.00
2022-11-16T12:58:27.547Z,7260.00
2022-11-16T12:59:27.534Z,6952.00
2022-11-16T13:00:27.522Z,6872.00
2022-11-16T13:01:27.577Z,6780.00
2022-11-16T13:02:27.496Z,6892.00
2022-11-16T13:03:27.480Z,9948.00
2022-11-16T13:04:27.471Z,16576.00
2022-11-16T13:06:27.442Z,8616.00
2022-11-16T13:07:27.520Z,8668.00
2022-11-16T13:08:27.417Z,8832.00
2022-11-16T13:09:27.402Z,8252.00
2022-11-16T13:10:27.397Z,7328.00
2022-11-16T13:11:27.384Z,8656.00
2022-11-16T13:12:27.480Z,35360.00
2022-11-16T13:13:36.486Z,56288.00
2022-11-16T13:14:29.341Z,32896.00
2022-11-16T13:15:27.325Z,16320.00
2022-11-16T13:17:27.300Z,16800.00
2022-11-16T13:18:27.290Z,25600.00
2022-11-16T13:19:27.275Z,41440.00
2022-11-16T13:20:27.264Z,27072.00
2022-11-16T13:21:27.248Z,20672.00
2022-11-16T13:22:27.237Z,11640.00
2022-11-16T13:23:27.223Z,13676.00
2022-11-16T13:24:27.213Z,13672.00
2022-11-16T13:25:27.198Z,11604.00
2022-11-16T13:26:27.186Z,10212.00
2022-11-16T13:28:33.152Z,9300.00
2022-11-16T13:29:29.146Z,9848.00
2022-11-16T13:30:27.133Z,11388.00
2022-11-16T13:31:27.123Z,10684.00
2022-11-16T13:32:27.108Z,6240.00
2022-11-16T13:33:27.091Z,5092.00
2022-11-16T13:34:27.086Z,4344.00
2022-11-16T13:35:27.066Z,3928.00
2022-11-16T13:36:27.054Z,3684.00
2022-11-16T13:37:27.039Z,3496.00
2022-11-16T13:39:27.014Z,3004.00
2022-11-16T13:40:27.007Z,2748.00
2022-11-16T13:41:26.991Z,2524.00
2022-11-16T13:42:26.983Z,2304.00
2022-11-16T13:43:26.963Z,2068.00
2022-11-16T13:44:26.978Z,1932.00
2022-11-16T13:45:26.939Z,1920.00
2022-11-16T13:46:54.156Z,1972.00
2022-11-16T13:47:26.911Z,1996.00